Private Wetterstation Wechselburg
Wetterdaten: Mittwoch, 05.09.2012
Datum Zeit Temp. +2m Bodentemp. Temp.+5cm Temp. Wind Windchill X Diff Temp. Feuchte +2m Feuchte +5cm Sonnenschein Luftdruck Regen Wind Richtung Richtung Sonnenschein UV Taupunkt Windchill Windben
05.09.2012 00:02 11,3 C 22,1 C 12,8 C 11,3 C 11,3 C 0,0 C 87 % 89 % 0 % 1019,2 hPa 0,0 l/m 0,0 km/h (0 Bft) W 270 0 min 0,0 UV-I 9,2 C 11,3 C 0,0 km/h (0 Bft)
05.09.2012 00:07 11,2 C 22,1 C 12,8 C 11,3 C 11,3 C 0,1 C 87 % 89 % 0 % 1019,2 hPa 0,0 l/m 0,0 km/h (0 Bft) W-NW 292 0 min 0,0 UV-I 9,1 C 11,3 C 0,0 km/h (0 Bft)
05.09.2012 00:12 11,3 C 22,1 C 12,7 C 11,3 C 11,2 C 0,0 C 87 % 89 % 0 % 1019,2 hPa 0,0 l/m 0,0 km/h (0 Bft) NW 315 0 min 0,0 UV-I 9,2 C 11,2 C 0,0 km/h (0 Bft)
05.09.2012 00:17 11,2 C 22,1 C 12,7 C 11,2 C 11,1 C 0,0 C 87 % 89 % 0 % 1019,2 hPa 0,0 l/m 0,0 km/h (0 Bft) SW 225 0 min 0,0 UV-I 9,1 C 11,1 C 0,0 km/h (0 Bft)
05.09.2012 00:22 11,1 C 22,1 C 12,6 C 11,1 C 11,1 C 0,0 C 87 % 89 % 0 % 1019,2 hPa 0,0 l/m 0,0 km/h (0 Bft) W 270 0 min 0,0 UV-I 9,0 C 11,1 C 0,0 km/h (0 Bft)
05.09.2012 00:27 11,1 C 22,1 C 12,5 C 11,1 C 11,1 C 0,0 C 88 % 89 % 0 % 1019,2 hPa 0,0 l/m 0,0 km/h (0 Bft) W 270 0 min 0,0 UV-I 9,2 C 11,1 C 0,0 km/h (0 Bft)
05.09.2012 00:32 11,1 C 22,1 C 12,5 C 11,1 C 11,1 C 0,0 C 88 % 89 % 0 % 1019,2 hPa 0,0 l/m 0,0 km/h (0 Bft) W 270 0 min 0,0 UV-I 9,2 C 11,1 C 0,0 km/h (0 Bft)
05.09.2012 00:37 11,1 C 22,1 C 12,5 C 11,1 C 11,0 C 0,0 C 88 % 89 % 0 % 1019,2 hPa 0,0 l/m 0,0 km/h (0 Bft) W-SW 247 0 min 0,0 UV-I 9,2 C 11,0 C 0,0 km/h (0 Bft)
05.09.2012 00:42 11,0 C 22,1 C 12,5 C 11,1 C 11,1 C 0,1 C 88 % 89 % 0 % 1019,1 hPa 0,0 l/m 0,0 km/h (0 Bft) SW 225 0 min 0,0 UV-I 9,1 C 11,1 C 0,0 km/h (0 Bft)
05.09.2012 00:47 11,0 C 22,1 C 12,5 C 11,1 C 11,1 C 0,1 C 88 % 89 % 0 % 1019,1 hPa 0,0 l/m 0,0 km/h (0 Bft) SW 225 0 min 0,0 UV-I 9,1 C 11,1 C 0,0 km/h (0 Bft)
05.09.2012 00:52 10,9 C 22,0 C 12,3 C 11,0 C 11,0 C 0,1 C 88 % 90 % 0 % 1019,1 hPa 0,0 l/m 0,0 km/h (0 Bft) W-SW 247 0 min 0,0 UV-I 9,0 C 11,0 C 0,0 km/h (0 Bft)
05.09.2012 00:57 10,8 C 22,0 C 12,4 C 11,0 C 11,0 C 0,2 C 88 % 90 % 0 % 1019,1 hPa 0,0 l/m 0,0 km/h (0 Bft) W-SW 247 0 min 0,0 UV-I 8,9 C 11,0 C 0,0 km/h (0 Bft)
05.09.2012 01:02 10,8 C 22,0 C 12,3 C 10,8 C 10,8 C 0,0 C 88 % 90 % 0 % 1019,0 hPa 0,0 l/m 0,0 km/h (0 Bft) W 270 0 min 0,0 UV-I 8,9 C 10,8 C 0,0 km/h (0 Bft)
05.09.2012 01:07 10,7 C 22,0 C 12,2 C 10,8 C 10,8 C 0,1 C 88 % 90 % 0 % 1019,0 hPa 0,0 l/m 0,0 km/h (0 Bft) W 270 0 min 0,0 UV-I 8,8 C 10,8 C 0,0 km/h (0 Bft)
05.09.2012 01:12 10,6 C 22,0 C 12,2 C 10,8 C 10,8 C 0,2 C 88 % 90 % 0 % 1019,0 hPa 0,0 l/m 0,0 km/h (0 Bft) W 270 0 min 0,0 UV-I 8,7 C 10,8 C 0,0 km/h (0 Bft)
05.09.2012 01:17 10,7 C 22,0 C 12,1 C 10,7 C 10,7 C 0,0 C 88 % 90 % 0 % 1019,0 hPa 0,0 l/m 0,0 km/h (0 Bft) W 270 0 min 0,0 UV-I 8,8 C 10,7 C 0,0 km/h (0 Bft)
05.09.2012 01:22 10,5 C 22,0 C 12,1 C 10,7 C 10,7 C 0,2 C 88 % 90 % 0 % 1019,1 hPa 0,0 l/m 0,0 km/h (0 Bft) NW 315 0 min 0,0 UV-I 8,6 C 10,7 C 0,0 km/h (0 Bft)
05.09.2012 01:27 10,5 C 22,0 C 12,1 C 10,7 C 10,7 C 0,2 C 88 % 90 % 0 % 1019,1 hPa 0,0 l/m 0,0 km/h (0 Bft) N-NW 337 0 min 0,0 UV-I 8,6 C 10,7 C 0,0 km/h (0 Bft)
05.09.2012 01:32 10,5 C 22,0 C 12,1 C 10,7 C 10,7 C 0,2 C 89 % 90 % 0 % 1019,1 hPa 0,0 l/m 0,0 km/h (0 Bft) NO 45 0 min 0,0 UV-I 8,8 C 10,7 C 0,0 km/h (0 Bft)
05.09.2012 01:37 10,6 C 22,0 C 12,0 C 10,7 C 10,7 C 0,1 C 89 % 90 % 0 % 1019,1 hPa 0,0 l/m 0,0 km/h (0 Bft) O-NO 67 0 min 0,0 UV-I 8,9 C 10,7 C 0,0 km/h (0 Bft)
05.09.2012 01:42 10,7 C 22,0 C 12,0 C 10,7 C 10,7 C 0,0 C 89 % 90 % 0 % 1018,9 hPa 0,0 l/m 0,0 km/h (0 Bft) O-NO 67 0 min 0,0 UV-I 9,0 C 10,7 C 0,0 km/h (0 Bft)
05.09.2012 01:47 10,6 C 21,9 C 11,9 C 10,7 C 10,7 C 0,1 C 89 % 90 % 0 % 1018,9 hPa 0,0 l/m 0,0 km/h (0 Bft) O-NO 67 0 min 0,0 UV-I 8,9 C 10,7 C 0,0 km/h (0 Bft)
05.09.2012 01:52 10,7 C 21,9 C 12,0 C 10,7 C 10,7 C 0,0 C 89 % 90 % 0 % 1018,9 hPa 0,0 l/m 0,0 km/h (0 Bft) O-NO 67 0 min 0,0 UV-I 9,0 C 10,7 C 0,0 km/h (0 Bft)
05.09.2012 01:57 10,7 C 21,9 C 12,0 C 10,7 C 10,7 C 0,0 C 89 % 90 % 0 % 1018,9 hPa 0,0 l/m 0,0 km/h (0 Bft) W-SW 247 0 min 0,0 UV-I 9,0 C 10,7 C 0,0 km/h (0 Bft)
05.09.2012 02:02 10,5 C 21,9 C 11,9 C 10,5 C 10,5 C 0,0 C 89 % 90 % 0 % 1018,9 hPa 0,0 l/m 0,0 km/h (0 Bft) W 270 0 min 0,0 UV-I 8,8 C 10,5 C 0,0 km/h (0 Bft)
05.09.2012 02:07 10,4 C 21,9 C 11,8 C 10,4 C 10,4 C 0,0 C 89 % 90 % 0 % 1018,9 hPa 0,0 l/m 0,0 km/h (0 Bft) W 270 0 min 0,0 UV-I 8,7 C 10,4 C 0,0 km/h (0 Bft)
05.09.2012 02:12 10,3 C 21,8 C 11,7 C 10,3 C 10,3 C 0,0 C 89 % 90 % 0 % 1018,9 hPa 0,0 l/m 0,0 km/h (0 Bft) W 270 0 min 0,0 UV-I 8,6 C 10,3 C 0,0 km/h (0 Bft)
05.09.2012 02:17 10,3 C 21,8 C 11,6 C 10,3 C 10,3 C 0,0 C 89 % 90 % 0 % 1018,9 hPa 0,0 l/m 0,0 km/h (0 Bft) W-SW 247 0 min 0,0 UV-I 8,6 C 10,3 C 0,0 km/h (0 Bft)
05.09.2012 02:22 10,2 C 21,8 C 11,6 C 10,2 C 10,2 C 0,0 C 89 % 90 % 0 % 1018,8 hPa 0,0 l/m 0,0 km/h (0 Bft) S-SW 202 0 min 0,0 UV-I 8,5 C 10,2 C 0,0 km/h (0 Bft)
05.09.2012 02:27 10,3 C 21,8 C 11,6 C 10,3 C 10,3 C 0,0 C 89 % 90 % 0 % 1018,8 hPa 0,0 l/m 0,0 km/h (0 Bft) S-SW 202 0 min 0,0 UV-I 8,6 C 10,3 C 0,0 km/h (0 Bft)
05.09.2012 02:32 10,3 C 21,8 C 11,6 C 10,3 C 10,2 C 0,0 C 89 % 90 % 0 % 1018,8 hPa 0,0 l/m 0,0 km/h (0 Bft) W 270 0 min 0,0 UV-I 8,6 C 10,2 C 0,0 km/h (0 Bft)
05.09.2012 02:37 10,1 C 21,8 C 11,5 C 10,2 C 10,2 C 0,1 C 89 % 90 % 0 % 1018,8 hPa 0,0 l/m 0,0 km/h (0 Bft) W 270 0 min 0,0 UV-I 8,4 C 10,2 C 0,0 km/h (0 Bft)
05.09.2012 02:42 10,1 C 21,8 C 11,6 C 10,2 C 10,2 C 0,1 C 89 % 90 % 0 % 1018,7 hPa 0,0 l/m 0,0 km/h (0 Bft) W-NW 292 0 min 0,0 UV-I 8,4 C 10,2 C 0,0 km/h (0 Bft)
05.09.2012 02:47 10,0 C 21,9 C 11,6 C 10,2 C 10,2 C 0,2 C 89 % 91 % 0 % 1018,7 hPa 0,0 l/m 0,0 km/h (0 Bft) SW 225 0 min 0,0 UV-I 8,3 C 10,2 C 0,0 km/h (0 Bft)
05.09.2012 02:52 10,0 C 21,8 C 11,5 C 10,1 C 10,1 C 0,1 C 89 % 90 % 0 % 1018,7 hPa 0,0 l/m 0,0 km/h (0 Bft) W-SW 247 0 min 0,0 UV-I 8,3 C 10,1 C 0,0 km/h (0 Bft)
05.09.2012 02:57 9,9 C 21,8 C 11,4 C 10,0 C 10,0 C 0,1 C 89 % 90 % 0 % 1018,7 hPa 0,0 l/m 0,0 km/h (0 Bft) W-SW 247 0 min 0,0 UV-I 8,2 C 10,0 C 0,0 km/h (0 Bft)
05.09.2012 03:02 9,8 C 21,8 C 11,4 C 10,0 C 10,0 C 0,2 C 89 % 90 % 0 % 1018,6 hPa 0,0 l/m 0,0 km/h (0 Bft) W-SW 247 0 min 0,0 UV-I 8,1 C 10,0 C 0,0 km/h (0 Bft)
05.09.2012 03:07 9,9 C 21,8 C 11,4 C 10,0 C 10,0 C 0,1 C 89 % 90 % 0 % 1018,6 hPa 0,0 l/m 0,0 km/h (0 Bft) W-SW 247 0 min 0,0 UV-I 8,2 C 10,0 C 0,0 km/h (0 Bft)
05.09.2012 03:12 9,8 C 21,8 C 11,3 C 10,0 C 10,0 C 0,2 C 89 % 90 % 0 % 1018,6 hPa 0,0 l/m 0,0 km/h (0 Bft) W-SW 247 0 min 0,0 UV-I 8,1 C 10,0 C 0,0 km/h (0 Bft)
05.09.2012 03:17 9,7 C 21,8 C 11,3 C 9,9 C 9,9 C 0,2 C 89 % 90 % 0 % 1018,6 hPa 0,0 l/m 0,0 km/h (0 Bft) W 270 0 min 0,0 UV-I 8,0 C 9,9 C 0,0 km/h (0 Bft)
05.09.2012 03:22 9,7 C 21,8 C 11,3 C 9,9 C 9,9 C 0,2 C 89 % 90 % 0 % 1018,8 hPa 0,0 l/m 0,0 km/h (0 Bft) W 270 0 min 0,0 UV-I 8,0 C 9,9 C 0,0 km/h (0 Bft)
05.09.2012 03:27 9,7 C 21,8 C 11,2 C 9,9 C 9,9 C 0,2 C 90 % 90 % 0 % 1018,8 hPa 0,0 l/m 0,0 km/h (0 Bft) S-SW 202 0 min 0,0 UV-I 8,1 C 9,9 C 0,0 km/h (0 Bft)
05.09.2012 03:32 9,7 C 21,8 C 11,2 C 9,8 C 9,8 C 0,1 C 90 % 90 % 0 % 1018,8 hPa 0,0 l/m 0,0 km/h (0 Bft) W 270 0 min 0,0 UV-I 8,1 C 9,8 C 0,0 km/h (0 Bft)
05.09.2012 03:37 9,6 C 21,8 C 11,2 C 9,9 C 9,9 C 0,3 C 90 % 91 % 0 % 1018,8 hPa 0,0 l/m 0,0 km/h (0 Bft) S-SO 157 0 min 0,0 UV-I 8,0 C 9,9 C 0,0 km/h (0 Bft)
05.09.2012 03:42 9,7 C 21,8 C 11,3 C 10,0 C 10,0 C 0,3 C 90 % 91 % 0 % 1018,9 hPa 0,0 l/m 0,0 km/h (0 Bft) S 180 0 min 0,0 UV-I 8,1 C 10,0 C 0,0 km/h (0 Bft)
05.09.2012 03:47 9,9 C 21,8 C 11,3 C 10,0 C 10,0 C 0,1 C 90 % 91 % 0 % 1018,9 hPa 0,0 l/m 0,0 km/h (0 Bft) S-SO 157 0 min 0,0 UV-I 8,3 C 10,0 C 0,0 km/h (0 Bft)
05.09.2012 03:52 9,9 C 21,7 C 11,2 C 10,0 C 10,0 C 0,1 C 90 % 91 % 0 % 1018,9 hPa 0,0 l/m 0,0 km/h (0 Bft) S 180 0 min 0,0 UV-I 8,3 C 10,0 C 0,0 km/h (0 Bft)
05.09.2012 03:57 9,8 C 21,7 C 11,2 C 10,0 C 10,0 C 0,2 C 90 % 91 % 0 % 1018,9 hPa 0,0 l/m 0,0 km/h (0 Bft) S-SW 202 0 min 0,0 UV-I 8,2 C 10,0 C 0,0 km/h (0 Bft)
05.09.2012 04:02 9,7 C 21,7 C 11,2 C 9,9 C 9,9 C 0,2 C 90 % 91 % 0 % 1018,8 hPa 0,0 l/m 0,0 km/h (0 Bft) SW 225 0 min 0,0 UV-I 8,1 C 9,9 C 0,0 km/h (0 Bft)
05.09.2012 04:07 9,6 C 21,7 C 11,2 C 9,8 C 9,8 C 0,2 C 90 % 91 % 0 % 1018,8 hPa 0,0 l/m 0,0 km/h (0 Bft) W-SW 247 0 min 0,0 UV-I 8,0 C 9,8 C 0,0 km/h (0 Bft)
05.09.2012 04:12 9,6 C 21,6 C 11,1 C 9,6 C 9,6 C 0,0 C 90 % 91 % 0 % 1018,8 hPa 0,0 l/m 0,0 km/h (0 Bft) W-SW 247 0 min 0,0 UV-I 8,0 C 9,6 C 0,0 km/h (0 Bft)
05.09.2012 04:17 9,5 C 21,6 C 11,0 C 9,6 C 9,6 C 0,1 C 90 % 91 % 0 % 1018,8 hPa 0,0 l/m 0,0 km/h (0 Bft) W 270 0 min 0,0 UV-I 7,9 C 9,6 C 0,0 km/h (0 Bft)
05.09.2012 04:22 9,5 C 21,6 C 10,9 C 9,6 C 9,6 C 0,1 C 90 % 90 % 0 % 1018,6 hPa 0,0 l/m 0,0 km/h (0 Bft) W 270 0 min 0,0 UV-I 7,9 C 9,6 C 0,0 km/h (0 Bft)
05.09.2012 04:27 9,3 C 21,6 C 10,9 C 9,6 C 9,6 C 0,3 C 90 % 91 % 0 % 1018,6 hPa 0,0 l/m 0,0 km/h (0 Bft) W-SW 247 0 min 0,0 UV-I 7,7 C 9,6 C 0,0 km/h (0 Bft)
05.09.2012 04:32 9,2 C 21,6 C 10,8 C 9,5 C 9,5 C 0,3 C 90 % 91 % 0 % 1018,6 hPa 0,0 l/m 0,0 km/h (0 Bft) W-SW 247 0 min 0,0 UV-I 7,6 C 9,5 C 0,0 km/h (0 Bft)
05.09.2012 04:37 9,3 C 21,6 C 10,9 C 9,4 C 9,4 C 0,1 C 90 % 91 % 0 % 1018,6 hPa 0,0 l/m 0,0 km/h (0 Bft) W-SW 247 0 min 0,0 UV-I 7,7 C 9,4 C 0,0 km/h (0 Bft)
05.09.2012 04:42 9,2 C 21,6 C 10,8 C 9,3 C 9,3 C 0,1 C 90 % 91 % 0 % 1019,2 hPa 0,0 l/m 0,0 km/h (0 Bft) W-SW 247 0 min 0,0 UV-I 7,6 C 9,3 C 0,0 km/h (0 Bft)
05.09.2012 04:47 9,2 C 21,6 C 10,8 C 9,3 C 9,3 C 0,1 C 90 % 91 % 0 % 1019,2 hPa 0,0 l/m 0,0 km/h (0 Bft) W 270 0 min 0,0 UV-I 7,6 C 9,3 C 0,0 km/h (0 Bft)
05.09.2012 04:52 9,2 C 21,6 C 10,8 C 9,3 C 9,3 C 0,1 C 90 % 91 % 0 % 1019,2 hPa 0,0 l/m 0,0 km/h (0 Bft) W-SW 247 0 min 0,0 UV-I 7,6 C 9,3 C 0,0 km/h (0 Bft)
05.09.2012 04:57 9,1 C 21,5 C 10,9 C 9,3 C 9,3 C 0,2 C 90 % 91 % 0 % 1019,2 hPa 0,0 l/m 0,0 km/h (0 Bft) W-SW 247 0 min 0,0 UV-I 7,5 C 9,3 C 0,0 km/h (0 Bft)
05.09.2012 05:02 9,1 C 21,5 C 10,9 C 9,5 C 9,5 C 0,4 C 90 % 91 % 0 % 1018,6 hPa 0,0 l/m 0,0 km/h (0 Bft) W-SW 247 0 min 0,0 UV-I 7,5 C 9,5 C 0,0 km/h (0 Bft)
05.09.2012 05:07 9,1 C 21,5 C 10,9 C 9,5 C 9,5 C 0,4 C 90 % 91 % 0 % 1018,6 hPa 0,0 l/m 0,0 km/h (0 Bft) SW 225 0 min 0,0 UV-I 7,5 C 9,5 C 0,0 km/h (0 Bft)
05.09.2012 05:12 9,1 C 21,5 C 10,8 C 9,3 C 9,3 C 0,2 C 90 % 91 % 0 % 1018,6 hPa 0,0 l/m 0,0 km/h (0 Bft) W-SW 247 0 min 0,0 UV-I 7,5 C 9,3 C 0,0 km/h (0 Bft)
05.09.2012 05:17 9,1 C 21,5 C 10,7 C 9,3 C 9,3 C 0,2 C 90 % 91 % 0 % 1018,6 hPa 0,0 l/m 0,0 km/h (0 Bft) SW 225 0 min 0,0 UV-I 7,5 C 9,3 C 0,0 km/h (0 Bft)
05.09.2012 05:22 9,0 C 21,5 C 10,7 C 9,3 C 9,3 C 0,3 C 90 % 91 % 0 % 1018,6 hPa 0,0 l/m 0,0 km/h (0 Bft) W-SW 247 0 min 0,0 UV-I 7,4 C 9,3 C 0,0 km/h (0 Bft)
05.09.2012 05:27 8,9 C 21,5 C 10,7 C 9,3 C 9,3 C 0,4 C 90 % 91 % 0 % 1018,6 hPa 0,0 l/m 0,0 km/h (0 Bft) W 270 0 min 0,0 UV-I 7,4 C 9,3 C 0,0 km/h (0 Bft)
05.09.2012 05:32 8,9 C 21,5 C 10,8 C 9,2 C 9,2 C 0,3 C 90 % 91 % 0 % 1018,6 hPa 0,0 l/m 0,0 km/h (0 Bft) W 270 0 min 0,0 UV-I 7,4 C 9,2 C 0,0 km/h (0 Bft)
05.09.2012 05:37 8,8 C 21,5 C 10,7 C 9,2 C 9,2 C 0,4 C 90 % 91 % 0 % 1018,6 hPa 0,0 l/m 0,0 km/h (0 Bft) W 270 0 min 0,0 UV-I 7,3 C 9,2 C 0,0 km/h (0 Bft)
05.09.2012 05:42 8,8 C 21,5 C 10,7 C 9,1 C 9,1 C 0,3 C 90 % 91 % 0 % 1018,8 hPa 0,0 l/m 0,0 km/h (0 Bft) W 270 0 min 0,0 UV-I 7,3 C 9,1 C 0,0 km/h (0 Bft)
05.09.2012 05:47 8,9 C 21,5 C 10,7 C 9,2 C 9,2 C 0,3 C 90 % 91 % 0 % 1018,8 hPa 0,0 l/m 0,0 km/h (0 Bft) W-SW 247 0 min 0,0 UV-I 7,4 C 9,2 C 0,0 km/h (0 Bft)
05.09.2012 05:52 8,8 C 21,4 C 10,7 C 9,2 C 9,2 C 0,4 C 90 % 91 % 0 % 1018,8 hPa 0,0 l/m 0,0 km/h (0 Bft) W-SW 247 0 min 0,0 UV-I 7,3 C 9,2 C 0,0 km/h (0 Bft)
05.09.2012 05:57 8,8 C 21,4 C 10,7 C 9,2 C 9,2 C 0,4 C 90 % 91 % 0 % 1018,8 hPa 0,0 l/m 0,0 km/h (0 Bft) W-SW 247 0 min 0,0 UV-I 7,3 C 9,2 C 0,0 km/h (0 Bft)
05.09.2012 06:02 8,8 C 21,4 C 10,7 C 9,2 C 9,2 C 0,4 C 90 % 91 % 0 % 1019,2 hPa 0,0 l/m 0,0 km/h (0 Bft) W-SW 247 0 min 0,0 UV-I 7,3 C 9,2 C 0,0 km/h (0 Bft)
05.09.2012 06:07 8,8 C 21,4 C 10,6 C 9,2 C 9,2 C 0,4 C 90 % 91 % 0 % 1019,2 hPa 0,0 l/m 0,0 km/h (0 Bft) S 180 0 min 0,0 UV-I 7,3 C 9,2 C 0,0 km/h (0 Bft)
05.09.2012 06:12 8,8 C 21,4 C 10,5 C 9,1 C 9,1 C 0,3 C 90 % 91 % 0 % 1019,2 hPa 0,0 l/m 0,0 km/h (0 Bft) S-SW 202 0 min 0,0 UV-I 7,3 C 9,1 C 0,0 km/h (0 Bft)
05.09.2012 06:17 8,7 C 21,3 C 10,5 C 9,0 C 9,0 C 0,3 C 90 % 91 % 0 % 1019,2 hPa 0,0 l/m 0,0 km/h (0 Bft) SW 225 0 min 0,0 UV-I 7,2 C 9,0 C 0,0 km/h (0 Bft)
05.09.2012 06:22 8,7 C 21,3 C 10,4 C 9,0 C 9,0 C 0,3 C 90 % 91 % 0 % 1019,1 hPa 0,0 l/m 0,2 km/h (0 Bft) W 270 0 min 0,0 UV-I 7,2 C 9,0 C 1,6 km/h (1 Bft)
05.09.2012 06:27 8,7 C 21,3 C 10,4 C 9,1 C 9,1 C 0,4 C 90 % 91 % 0 % 1019,1 hPa 0,0 l/m 0,2 km/h (0 Bft) W-SW 247 0 min 0,0 UV-I 7,2 C 9,1 C 0,0 km/h (0 Bft)
05.09.2012 06:32 8,7 C 21,3 C 10,4 C 9,0 C 9,0 C 0,3 C 91 % 91 % 0 % 1019,1 hPa 0,0 l/m 0,2 km/h (0 Bft) W-SW 247 0 min 0,0 UV-I 7,3 C 9,0 C 0,0 km/h (0 Bft)
05.09.2012 06:37 8,7 C 21,3 C 10,4 C 9,0 C 9,0 C 0,3 C 91 % 91 % 0 % 1019,1 hPa 0,0 l/m 0,0 km/h (0 Bft) W-SW 247 0 min 0,0 UV-I 7,3 C 9,0 C 0,0 km/h (0 Bft)
05.09.2012 06:42 8,7 C 21,3 C 10,4 C 9,1 C 9,1 C 0,4 C 91 % 91 % 11 % 1017,9 hPa 0,0 l/m 0,0 km/h (0 Bft) W-SW 247 5 min 0,0 UV-I 7,3 C 9,1 C 0,0 km/h (0 Bft)
05.09.2012 06:47 8,7 C 21,3 C 10,5 C 9,1 C 9,1 C 0,4 C 91 % 91 % 11 % 1017,9 hPa 0,0 l/m 0,0 km/h (0 Bft) W-SW 247 5 min 0,0 UV-I 7,3 C 9,1 C 0,0 km/h (0 Bft)
05.09.2012 06:52 8,7 C 21,3 C 10,5 C 9,2 C 9,2 C 0,5 C 91 % 91 % 13 % 1017,9 hPa 0,0 l/m 0,0 km/h (0 Bft) W-SW 247 5 min 0,0 UV-I 7,3 C 9,2 C 0,0 km/h (0 Bft)
05.09.2012 06:57 8,8 C 21,3 C 10,5 C 9,3 C 9,3 C 0,5 C 91 % 91 % 13 % 1017,9 hPa 0,0 l/m 0,0 km/h (0 Bft) W-SW 247 0 min 0,0 UV-I 7,4 C 9,3 C 0,0 km/h (0 Bft)
05.09.2012 07:02 8,8 C 21,3 C 10,7 C 10,0 C 10,0 C 1,2 C 91 % 91 % 32 % 1018,8 hPa 0,0 l/m 0,0 km/h (0 Bft) SW 225 5 min 0,0 UV-I 7,4 C 10,0 C 0,0 km/h (0 Bft)
05.09.2012 07:07 8,9 C 21,3 C 10,8 C 10,5 C 10,5 C 1,6 C 91 % 91 % 42 % 1018,8 hPa 0,0 l/m 0,0 km/h (0 Bft) S-SW 202 5 min 0,0 UV-I 7,5 C 10,5 C 0,0 km/h (0 Bft)
05.09.2012 07:12 9,2 C 21,3 C 11,0 C 11,1 C 11,1 C 1,9 C 91 % 92 % 50 % 1018,8 hPa 0,0 l/m 0,0 km/h (0 Bft) SW 225 5 min 0,0 UV-I 7,8 C 11,1 C 0,0 km/h (0 Bft)
05.09.2012 07:17 9,5 C 21,2 C 11,3 C 11,7 C 11,7 C 2,2 C 92 % 92 % 58 % 1018,8 hPa 0,0 l/m 0,0 km/h (0 Bft) SW 225 5 min 0,0 UV-I 8,3 C 11,7 C 0,0 km/h (0 Bft)
05.09.2012 07:22 9,7 C 21,2 C 11,6 C 12,5 C 12,5 C 2,8 C 92 % 92 % 74 % 1018,4 hPa 0,0 l/m 0,0 km/h (0 Bft) SW 225 5 min 0,0 UV-I 8,5 C 12,5 C 0,0 km/h (0 Bft)
05.09.2012 07:27 9,8 C 21,2 C 11,8 C 12,8 C 12,8 C 3,0 C 92 % 92 % 79 % 1018,4 hPa 0,0 l/m 0,0 km/h (0 Bft) SW 225 5 min 0,0 UV-I 8,6 C 12,8 C 0,0 km/h (0 Bft)
05.09.2012 07:32 10,1 C 21,2 C 12,2 C 13,8 C 13,8 C 3,7 C 92 % 92 % 97 % 1018,4 hPa 0,0 l/m 0,0 km/h (0 Bft) W-SW 247 5 min 0,0 UV-I 8,9 C 13,8 C 0,0 km/h (0 Bft)
05.09.2012 07:37 10,3 C 21,2 C 12,4 C 14,5 C 14,5 C 4,2 C 92 % 91 % 100 % 1018,4 hPa 0,0 l/m 0,0 km/h (0 Bft) W-SW 247 5 min 0,0 UV-I 9,1 C 14,5 C 0,0 km/h (0 Bft)
05.09.2012 07:42 10,5 C 21,1 C 12,6 C 15,2 C 15,2 C 4,7 C 92 % 91 % 100 % 1018,2 hPa 0,0 l/m 0,0 km/h (0 Bft) W-SW 247 5 min 0,0 UV-I 9,3 C 15,2 C 0,0 km/h (0 Bft)
05.09.2012 07:47 10,7 C 21,1 C 12,8 C 15,6 C 15,6 C 4,9 C 92 % 91 % 100 % 1018,2 hPa 0,0 l/m 0,0 km/h (0 Bft) SW 225 5 min 0,0 UV-I 9,5 C 15,6 C 0,0 km/h (0 Bft)
05.09.2012 07:52 10,9 C 21,1 C 13,1 C 16,5 C 16,5 C 5,6 C 92 % 91 % 100 % 1018,2 hPa 0,0 l/m 0,0 km/h (0 Bft) SW 225 5 min 0,0 UV-I 9,7 C 16,5 C 0,0 km/h (0 Bft)
05.09.2012 07:57 11,0 C 21,1 C 13,2 C 17,3 C 17,3 C 6,3 C 93 % 91 % 100 % 1018,2 hPa 0,0 l/m 0,0 km/h (0 Bft) W-SW 247 5 min 0,0 UV-I 9,9 C 17,3 C 0,0 km/h (0 Bft)
05.09.2012 08:02 11,5 C 21,1 C 13,1 C 18,2 C 18,2 C 6,7 C 93 % 90 % 100 % 1018,6 hPa 0,0 l/m 0,0 km/h (0 Bft) W-SW 247 5 min 0,0 UV-I 10,4 C 18,2 C 0,0 km/h (0 Bft)
05.09.2012 08:07 11,6 C 21,1 C 13,1 C 18,6 C 18,6 C 7,0 C 93 % 90 % 100 % 1018,6 hPa 0,0 l/m 0,0 km/h (0 Bft) W-SW 247 5 min 0,0 UV-I 10,5 C 18,6 C 0,0 km/h (0 Bft)
05.09.2012 08:12 11,8 C 21,1 C 13,2 C 18,6 C 18,6 C 6,8 C 93 % 91 % 100 % 1018,6 hPa 0,0 l/m 0,0 km/h (0 Bft) SW 225 5 min 0,0 UV-I 10,7 C 18,6 C 0,0 km/h (0 Bft)
05.09.2012 08:17 12,0 C 21,1 C 13,3 C 17,8 C 17,8 C 5,8 C 93 % 91 % 100 % 1018,6 hPa 0,0 l/m 0,0 km/h (0 Bft) SW 225 5 min 0,0 UV-I 10,9 C 17,8 C 0,0 km/h (0 Bft)
05.09.2012 08:22 12,1 C 21,1 C 13,5 C 16,6 C 16,6 C 4,5 C 92 % 91 % 100 % 1018,4 hPa 0,0 l/m 0,2 km/h (0 Bft) W-SW 247 5 min 0,0 UV-I 10,8 C 16,6 C 0,0 km/h (0 Bft)
05.09.2012 08:27 12,3 C 21,0 C 13,5 C 16,1 C 16,1 C 3,8 C 93 % 91 % 100 % 1018,4 hPa 0,0 l/m 0,2 km/h (0 Bft) W-SW 247 5 min 0,0 UV-I 11,2 C 16,1 C 0,0 km/h (0 Bft)
05.09.2012 08:32 12,5 C 21,0 C 13,6 C 15,7 C 15,7 C 3,2 C 93 % 91 % 84 % 1018,4 hPa 0,0 l/m 0,0 km/h (0 Bft) W-SW 247 5 min 0,0 UV-I 11,4 C 15,7 C 0,0 km/h (0 Bft)
05.09.2012 08:37 12,7 C 20,9 C 13,8 C 15,6 C 15,6 C 2,9 C 93 % 91 % 76 % 1018,4 hPa 0,0 l/m 0,2 km/h (0 Bft) W-SW 247 0 min 0,0 UV-I 11,6 C 15,6 C 1,9 km/h (1 Bft)
05.09.2012 08:42 12,7 C 21,0 C 13,9 C 15,4 C 15,4 C 2,7 C 93 % 91 % 71 % 1018,5 hPa 0,0 l/m 0,2 km/h (0 Bft) SW 225 0 min 0,1 UV-I 11,6 C 15,4 C 0,0 km/h (0 Bft)
05.09.2012 08:47 12,8 C 20,9 C 13,9 C 15,5 C 15,5 C 2,7 C 93 % 91 % 71 % 1018,5 hPa 0,0 l/m 0,2 km/h (0 Bft) SW 225 0 min 0,1 UV-I 11,7 C 15,5 C 0,0 km/h (0 Bft)
05.09.2012 08:52 13,0 C 20,9 C 14,1 C 15,5 C 15,5 C 2,5 C 92 % 90 % 66 % 1018,5 hPa 0,0 l/m 0,0 km/h (0 Bft) S-SO 157 0 min 0,1 UV-I 11,7 C 15,5 C 0,0 km/h (0 Bft)
05.09.2012 08:57 13,1 C 20,9 C 14,1 C 15,7 C 15,7 C 2,6 C 92 % 90 % 68 % 1018,5 hPa 0,0 l/m 0,0 km/h (0 Bft) O-NO 67 0 min 0,1 UV-I 11,8 C 15,7 C 0,0 km/h (0 Bft)
05.09.2012 09:02 13,2 C 20,9 C 14,4 C 15,8 C 15,8 C 2,6 C 92 % 91 % 68 % 1018,5 hPa 0,0 l/m 0,0 km/h (0 Bft) SW 225 0 min 0,1 UV-I 11,9 C 15,8 C 0,0 km/h (0 Bft)
05.09.2012 09:07 13,5 C 20,9 C 14,4 C 15,9 C 15,9 C 2,4 C 92 % 91 % 63 % 1018,5 hPa 0,0 l/m 0,0 km/h (0 Bft) W-SW 247 0 min 0,2 UV-I 12,2 C 15,9 C 0,0 km/h (0 Bft)
05.09.2012 09:12 13,7 C 20,9 C 14,5 C 16,2 C 16,2 C 2,5 C 92 % 91 % 66 % 1018,5 hPa 0,0 l/m 0,0 km/h (0 Bft) S-SO 157 0 min 0,2 UV-I 12,4 C 16,2 C 0,0 km/h (0 Bft)
05.09.2012 09:17 13,7 C 20,8 C 14,6 C 16,3 C 16,3 C 2,6 C 92 % 90 % 68 % 1018,5 hPa 0,0 l/m 0,0 km/h (0 Bft) NW 315 0 min 0,2 UV-I 12,4 C 16,3 C 0,0 km/h (0 Bft)
05.09.2012 09:22 14,0 C 20,8 C 14,8 C 16,6 C 16,6 C 2,6 C 92 % 90 % 68 % 1018,7 hPa 0,0 l/m 0,0 km/h (0 Bft) SW 225 0 min 0,3 UV-I 12,7 C 16,6 C 0,0 km/h (0 Bft)
05.09.2012 09:27 14,1 C 20,8 C 14,9 C 16,7 C 16,7 C 2,6 C 92 % 90 % 68 % 1018,7 hPa 0,0 l/m 0,3 km/h (0 Bft) W-SW 247 0 min 0,3 UV-I 12,8 C 16,7 C 0,0 km/h (0 Bft)
05.09.2012 09:32 14,4 C 20,9 C 15,1 C 16,8 C 16,8 C 2,4 C 92 % 90 % 63 % 1018,7 hPa 0,0 l/m 0,5 km/h (0 Bft) W 270 0 min 0,3 UV-I 13,1 C 16,8 C 1,9 km/h (1 Bft)
05.09.2012 09:37 14,4 C 20,9 C 15,1 C 16,8 C 16,8 C 2,4 C 92 % 90 % 63 % 1018,7 hPa 0,0 l/m 0,8 km/h (0 Bft) W 270 0 min 0,4 UV-I 13,1 C 16,8 C 2,1 km/h (1 Bft)
05.09.2012 09:42 14,7 C 20,9 C 15,2 C 17,0 C 17,0 C 2,3 C 91 % 90 % 61 % 1018,7 hPa 0,0 l/m 1,1 km/h (1 Bft) W-SW 247 0 min 0,5 UV-I 13,2 C 17,0 C 2,3 km/h (1 Bft)
05.09.2012 09:47 14,7 C 20,8 C 15,2 C 17,0 C 17,0 C 2,3 C 91 % 90 % 61 % 1018,7 hPa 0,0 l/m 1,0 km/h (0 Bft) W-SW 247 0 min 0,5 UV-I 13,2 C 17,0 C 1,8 km/h (1 Bft)
05.09.2012 09:52 14,9 C 20,8 C 15,3 C 17,3 C 17,3 C 2,4 C 90 % 90 % 63 % 1018,7 hPa 0,0 l/m 0,8 km/h (0 Bft) W-SW 247 0 min 0,6 UV-I 13,3 C 17,3 C 1,6 km/h (1 Bft)
05.09.2012 09:57 15,1 C 20,8 C 15,4 C 17,4 C 17,4 C 2,3 C 90 % 90 % 61 % 1018,7 hPa 0,0 l/m 1,0 km/h (0 Bft) SW 225 0 min 0,6 UV-I 13,5 C 17,4 C 0,0 km/h (0 Bft)
05.09.2012 10:02 15,3 C 20,8 C 15,7 C 17,7 C 17,7 C 2,4 C 90 % 90 % 63 % 1019,1 hPa 0,0 l/m 1,3 km/h (1 Bft) SW 225 0 min 0,7 UV-I 13,7 C 17,7 C 2,4 km/h (1 Bft)
05.09.2012 10:07 15,5 C 20,7 C 15,7 C 17,8 C 17,8 C 2,3 C 89 % 90 % 61 % 1019,1 hPa 0,0 l/m 1,0 km/h (0 Bft) W-SW 247 0 min 0,8 UV-I 13,7 C 17,8 C 1,6 km/h (1 Bft)
05.09.2012 10:12 15,6 C 20,7 C 15,8 C 18,1 C 18,1 C 2,5 C 88 % 90 % 66 % 1019,1 hPa 0,0 l/m 1,1 km/h (1 Bft) W 270 0 min 0,8 UV-I 13,6 C 18,1 C 1,8 km/h (1 Bft)
05.09.2012 10:17 15,9 C 20,7 C 15,9 C 18,3 C 18,3 C 2,4 C 88 % 89 % 63 % 1019,1 hPa 0,0 l/m 1,1 km/h (1 Bft) W-SW 247 0 min 0,9 UV-I 13,9 C 18,3 C 3,2 km/h (1 Bft)
05.09.2012 10:22 16,0 C 20,6 C 16,0 C 18,4 C 18,4 C 2,4 C 86 % 89 % 63 % 1018,9 hPa 0,0 l/m 1,8 km/h (1 Bft) W-SW 247 0 min 0,9 UV-I 13,7 C 18,4 C 3,4 km/h (1 Bft)
05.09.2012 10:27 16,1 C 20,6 C 16,0 C 18,4 C 18,4 C 2,3 C 85 % 89 % 61 % 1018,9 hPa 0,0 l/m 2,3 km/h (1 Bft) NW 315 0 min 0,9 UV-I 13,6 C 18,4 C 3,9 km/h (1 Bft)
05.09.2012 10:32 16,3 C 20,6 C 16,3 C 18,6 C 18,6 C 2,3 C 84 % 89 % 61 % 1018,9 hPa 0,0 l/m 2,1 km/h (1 Bft) W-SW 247 0 min 1,0 UV-I 13,6 C 18,6 C 0,0 km/h (0 Bft)
05.09.2012 10:37 16,4 C 20,6 C 16,3 C 18,7 C 18,7 C 2,3 C 83 % 88 % 61 % 1018,9 hPa 0,0 l/m 1,3 km/h (1 Bft) W-SW 247 0 min 1,0 UV-I 13,5 C 18,7 C 0,0 km/h (0 Bft)
05.09.2012 10:42 16,7 C 20,6 C 16,4 C 19,0 C 19,0 C 2,3 C 83 % 88 % 61 % 1019,1 hPa 0,0 l/m 0,8 km/h (0 Bft) W 270 0 min 1,0 UV-I 13,8 C 19,0 C 1,6 km/h (1 Bft)
05.09.2012 10:47 16,8 C 20,6 C 16,4 C 19,1 C 19,1 C 2,3 C 82 % 88 % 61 % 1019,1 hPa 0,0 l/m 1,1 km/h (1 Bft) SW 225 0 min 1,1 UV-I 13,7 C 19,1 C 2,3 km/h (1 Bft)
05.09.2012 10:52 16,9 C 20,6 C 16,5 C 19,2 C 19,2 C 2,3 C 81 % 88 % 61 % 1019,1 hPa 0,0 l/m 1,6 km/h (1 Bft) S-SW 202 0 min 1,1 UV-I 13,6 C 19,2 C 2,1 km/h (1 Bft)
05.09.2012 10:57 16,9 C 20,6 C 16,5 C 19,3 C 19,3 C 2,4 C 80 % 87 % 63 % 1019,1 hPa 0,0 l/m 1,3 km/h (1 Bft) W 270 0 min 1,2 UV-I 13,4 C 19,3 C 2,4 km/h (1 Bft)
05.09.2012 11:02 17,1 C 20,6 C 16,7 C 19,5 C 19,5 C 2,4 C 80 % 87 % 63 % 1018,9 hPa 0,0 l/m 0,6 km/h (0 Bft) W-SW 247 0 min 1,2 UV-I 13,6 C 19,5 C 2,3 km/h (1 Bft)
05.09.2012 11:07 17,2 C 20,6 C 16,7 C 19,5 C 19,5 C 2,3 C 79 % 87 % 61 % 1018,9 hPa 0,0 l/m 1,4 km/h (1 Bft) W 270 0 min 1,2 UV-I 13,5 C 19,5 C 3,1 km/h (1 Bft)
05.09.2012 11:12 17,2 C 20,6 C 16,8 C 19,5 C 19,5 C 2,3 C 79 % 87 % 61 % 1018,9 hPa 0,0 l/m 1,4 km/h (1 Bft) O-SO 112 0 min 1,2 UV-I 13,5 C 19,5 C 0,0 km/h (0 Bft)
05.09.2012 11:17 17,4 C 20,6 C 16,9 C 19,6 C 19,6 C 2,2 C 78 % 86 % 58 % 1018,9 hPa 0,0 l/m 1,0 km/h (0 Bft) SW 225 0 min 1,1 UV-I 13,5 C 19,6 C 2,4 km/h (1 Bft)
05.09.2012 11:22 17,5 C 20,6 C 16,9 C 19,5 C 19,5 C 2,0 C 78 % 86 % 53 % 1018,9 hPa 0,0 l/m 1,6 km/h (1 Bft) W-SW 247 0 min 1,2 UV-I 13,6 C 19,5 C 0,0 km/h (0 Bft)
05.09.2012 11:27 17,4 C 20,7 C 16,9 C 19,6 C 19,6 C 2,2 C 78 % 86 % 58 % 1018,9 hPa 0,0 l/m 1,3 km/h (1 Bft) SO 135 0 min 1,2 UV-I 13,5 C 19,6 C 0,0 km/h (0 Bft)
05.09.2012 11:32 17,5 C 20,7 C 17,1 C 19,7 C 19,7 C 2,2 C 78 % 86 % 58 % 1018,9 hPa 0,0 l/m 1,1 km/h (1 Bft) W-SW 247 0 min 1,3 UV-I 13,6 C 19,7 C 2,3 km/h (1 Bft)
05.09.2012 11:37 17,6 C 20,7 C 17,1 C 19,7 C 19,7 C 2,1 C 78 % 86 % 55 % 1018,9 hPa 0,0 l/m 1,4 km/h (1 Bft) W-SW 247 0 min 1,4 UV-I 13,7 C 19,7 C 2,3 km/h (1 Bft)
05.09.2012 11:42 17,6 C 20,7 C 17,3 C 19,9 C 19,9 C 2,3 C 78 % 86 % 61 % 1018,9 hPa 0,0 l/m 1,4 km/h (1 Bft) S-SW 202 0 min 1,5 UV-I 13,7 C 19,9 C 2,7 km/h (1 Bft)
05.09.2012 11:47 17,6 C 20,7 C 17,3 C 20,0 C 20,0 C 2,4 C 78 % 86 % 63 % 1018,9 hPa 0,0 l/m 1,4 km/h (1 Bft) W 270 0 min 1,6 UV-I 13,7 C 20,0 C 2,6 km/h (1 Bft)
05.09.2012 11:52 17,7 C 20,7 C 17,4 C 20,0 C 20,0 C 2,3 C 77 % 86 % 61 % 1018,9 hPa 0,0 l/m 2,3 km/h (1 Bft) SW 225 0 min 1,6 UV-I 13,6 C 20,0 C 2,7 km/h (1 Bft)
05.09.2012 11:57 17,8 C 20,7 C 17,5 C 20,2 C 20,2 C 2,4 C 77 % 86 % 63 % 1018,9 hPa 0,0 l/m 2,4 km/h (1 Bft) SW 225 0 min 1,6 UV-I 13,7 C 20,2 C 2,3 km/h (1 Bft)
05.09.2012 12:02 17,9 C 20,7 C 17,5 C 20,2 C 20,2 C 2,3 C 77 % 85 % 61 % 1018,9 hPa 0,0 l/m 2,3 km/h (1 Bft) S-SW 202 0 min 1,6 UV-I 13,8 C 20,2 C 4,2 km/h (1 Bft)
05.09.2012 12:07 17,9 C 20,7 C 17,6 C 20,3 C 20,3 C 2,4 C 77 % 85 % 63 % 1018,9 hPa 0,0 l/m 1,9 km/h (1 Bft) S 180 0 min 1,6 UV-I 13,8 C 20,3 C 1,6 km/h (1 Bft)
05.09.2012 12:12 18,0 C 20,7 C 17,7 C 20,5 C 20,5 C 2,5 C 77 % 85 % 66 % 1018,9 hPa 0,0 l/m 1,9 km/h (1 Bft) SW 225 0 min 1,8 UV-I 13,9 C 20,5 C 6,3 km/h (2 Bft)
05.09.2012 12:17 18,1 C 20,7 C 17,7 C 20,5 C 20,5 C 2,4 C 76 % 85 % 63 % 1018,9 hPa 0,0 l/m 2,7 km/h (1 Bft) S 180 0 min 1,9 UV-I 13,8 C 20,5 C 4,5 km/h (1 Bft)
05.09.2012 12:22 18,1 C 20,7 C 17,8 C 20,7 C 20,7 C 2,6 C 77 % 84 % 68 % 1018,8 hPa 0,0 l/m 2,7 km/h (1 Bft) N-NO 22 0 min 2,0 UV-I 14,0 C 20,7 C 0,0 km/h (0 Bft)
05.09.2012 12:27 18,2 C 20,7 C 18,0 C 20,9 C 20,9 C 2,7 C 76 % 84 % 71 % 1018,8 hPa 0,0 l/m 2,1 km/h (1 Bft) S 180 0 min 2,1 UV-I 13,9 C 20,9 C 4,2 km/h (1 Bft)
05.09.2012 12:32 18,3 C 20,7 C 18,1 C 21,1 C 21,1 C 2,8 C 76 % 84 % 74 % 1018,8 hPa 0,0 l/m 1,9 km/h (1 Bft) SW 225 0 min 2,2 UV-I 14,0 C 21,1 C 1,9 km/h (1 Bft)
05.09.2012 12:37 18,3 C 20,8 C 18,1 C 21,3 C 21,3 C 3,0 C 77 % 84 % 79 % 1018,8 hPa 0,0 l/m 2,3 km/h (1 Bft) SW 225 0 min 2,3 UV-I 14,2 C 21,3 C 2,1 km/h (1 Bft)
05.09.2012 12:42 18,4 C 20,8 C 18,2 C 21,6 C 21,6 C 3,2 C 76 % 84 % 84 % 1019,1 hPa 0,0 l/m 1,6 km/h (1 Bft) SW 225 0 min 2,2 UV-I 14,1 C 21,6 C 2,6 km/h (1 Bft)
05.09.2012 12:47 18,7 C 20,8 C 18,3 C 21,6 C 21,6 C 2,9 C 76 % 84 % 76 % 1019,1 hPa 0,0 l/m 1,8 km/h (1 Bft) SW 225 0 min 2,0 UV-I 14,4 C 21,6 C 2,1 km/h (1 Bft)
05.09.2012 12:52 18,7 C 20,8 C 18,3 C 21,4 C 21,4 C 2,7 C 75 % 84 % 71 % 1019,1 hPa 0,0 l/m 2,6 km/h (1 Bft) SW 225 0 min 1,8 UV-I 14,2 C 21,4 C 5,8 km/h (2 Bft)
05.09.2012 12:57 18,5 C 20,8 C 18,3 C 21,2 C 21,2 C 2,7 C 75 % 84 % 71 % 1019,1 hPa 0,0 l/m 2,9 km/h (1 Bft) S 180 0 min 1,9 UV-I 14,0 C 21,2 C 1,6 km/h (1 Bft)
05.09.2012 13:02 18,5 C 20,8 C 18,3 C 21,1 C 21,1 C 2,6 C 75 % 84 % 68 % 1019,0 hPa 0,0 l/m 2,7 km/h (1 Bft) W-SW 247 0 min 1,9 UV-I 14,0 C 21,1 C 3,5 km/h (1 Bft)
05.09.2012 13:07 18,5 C 20,8 C 18,3 C 21,1 C 21,1 C 2,6 C 75 % 84 % 68 % 1019,0 hPa 0,0 l/m 1,8 km/h (1 Bft) W-SW 247 0 min 1,9 UV-I 14,0 C 21,1 C 1,9 km/h (1 Bft)
05.09.2012 13:12 18,7 C 20,8 C 18,3 C 21,1 C 21,1 C 2,4 C 75 % 83 % 63 % 1019,0 hPa 0,0 l/m 2,4 km/h (1 Bft) S-SW 202 0 min 1,8 UV-I 14,2 C 21,1 C 3,1 km/h (1 Bft)
05.09.2012 13:17 18,5 C 20,8 C 18,3 C 20,9 C 20,9 C 2,4 C 75 % 83 % 63 % 1019,0 hPa 0,0 l/m 2,7 km/h (1 Bft) W-SW 247 0 min 1,6 UV-I 14,0 C 20,9 C 4,7 km/h (1 Bft)
05.09.2012 13:22 18,4 C 20,8 C 18,3 C 20,7 C 20,7 C 2,3 C 75 % 83 % 61 % 1019,1 hPa 0,0 l/m 2,4 km/h (1 Bft) W-SW 247 0 min 1,4 UV-I 13,9 C 20,7 C 2,3 km/h (1 Bft)
05.09.2012 13:27 18,4 C 20,8 C 18,3 C 20,6 C 20,6 C 2,2 C 76 % 83 % 58 % 1019,1 hPa 0,0 l/m 1,9 km/h (1 Bft) S-SW 202 0 min 1,4 UV-I 14,1 C 20,6 C 0,0 km/h (0 Bft)
05.09.2012 13:32 18,4 C 20,8 C 18,2 C 20,5 C 20,5 C 2,1 C 76 % 83 % 55 % 1019,1 hPa 0,0 l/m 1,1 km/h (1 Bft) W 270 0 min 1,1 UV-I 14,1 C 20,5 C 1,9 km/h (1 Bft)
05.09.2012 13:37 18,4 C 20,8 C 18,1 C 20,3 C 20,3 C 1,9 C 75 % 82 % 50 % 1019,1 hPa 0,0 l/m 0,8 km/h (0 Bft) W 270 0 min 0,8 UV-I 13,9 C 20,3 C 3,9 km/h (1 Bft)
05.09.2012 13:42 18,3 C 20,8 C 18,1 C 20,0 C 20,0 C 1,7 C 76 % 83 % 45 % 1019,1 hPa 0,0 l/m 1,0 km/h (0 Bft) NW 315 0 min 0,7 UV-I 14,0 C 20,0 C 0,0 km/h (0 Bft)
05.09.2012 13:47 18,2 C 20,8 C 18,0 C 19,9 C 19,9 C 1,7 C 76 % 83 % 45 % 1019,1 hPa 0,0 l/m 1,3 km/h (1 Bft) S 180 0 min 0,7 UV-I 13,9 C 19,9 C 2,1 km/h (1 Bft)
05.09.2012 13:52 18,1 C 20,8 C 18,0 C 19,7 C 19,7 C 1,6 C 76 % 83 % 42 % 1019,1 hPa 0,0 l/m 1,9 km/h (1 Bft) W-SW 247 0 min 0,7 UV-I 13,8 C 19,7 C 2,7 km/h (1 Bft)
05.09.2012 13:57 17,9 C 20,8 C 17,9 C 19,3 C 19,3 C 1,4 C 77 % 83 % 37 % 1019,1 hPa 0,0 l/m 1,8 km/h (1 Bft) W 270 0 min 0,7 UV-I 13,8 C 19,3 C 4,2 km/h (1 Bft)
05.09.2012 14:02 17,8 C 20,9 C 17,9 C 18,8 C 18,8 C 1,0 C 77 % 83 % 26 % 1019,1 hPa 0,0 l/m 1,3 km/h (1 Bft) N-NO 22 0 min 0,7 UV-I 13,7 C 18,8 C 0,0 km/h (0 Bft)
05.09.2012 14:07 17,7 C 20,9 C 17,9 C 18,6 C 18,6 C 0,9 C 79 % 84 % 24 % 1019,1 hPa 0,0 l/m 1,0 km/h (0 Bft) S 180 0 min 0,9 UV-I 14,0 C 18,6 C 1,6 km/h (1 Bft)
05.09.2012 14:12 17,7 C 20,9 C 17,9 C 18,6 C 18,6 C 0,9 C 79 % 84 % 24 % 1019,1 hPa 0,0 l/m 0,8 km/h (0 Bft) NW 315 0 min 1,1 UV-I 14,0 C 18,6 C 0,0 km/h (0 Bft)
05.09.2012 14:17 17,6 C 20,9 C 17,8 C 18,6 C 18,6 C 1,0 C 80 % 85 % 26 % 1019,1 hPa 0,0 l/m 0,8 km/h (0 Bft) NW 315 0 min 1,1 UV-I 14,1 C 18,6 C 1,9 km/h (1 Bft)
05.09.2012 14:22 17,5 C 21,0 C 17,6 C 18,2 C 18,2 C 0,7 C 80 % 85 % 18 % 1019,2 hPa 0,0 l/m 0,6 km/h (0 Bft) W 270 0 min 1,1 UV-I 14,0 C 18,2 C 0,0 km/h (0 Bft)
05.09.2012 14:27 17,5 C 21,0 C 17,5 C 18,0 C 18,0 C 0,5 C 80 % 86 % 13 % 1019,2 hPa 0,0 l/m 0,6 km/h (0 Bft) W 270 0 min 0,9 UV-I 14,0 C 18,0 C 0,0 km/h (0 Bft)
05.09.2012 14:32 17,4 C 21,1 C 17,4 C 17,7 C 17,7 C 0,3 C 81 % 86 % 8 % 1019,2 hPa 0,0 l/m 1,1 km/h (1 Bft) S 180 0 min 0,7 UV-I 14,1 C 17,7 C 2,1 km/h (1 Bft)
05.09.2012 14:37 17,2 C 21,3 C 17,3 C 17,5 C 17,5 C 0,3 C 81 % 86 % 8 % 1019,2 hPa 0,0 l/m 1,4 km/h (1 Bft) N-NW 337 0 min 0,6 UV-I 13,9 C 17,5 C 1,8 km/h (1 Bft)
05.09.2012 14:42 17,1 C 21,4 C 16,9 C 17,2 C 17,2 C 0,1 C 82 % 87 % 3 % 1019,2 hPa 0,0 l/m 0,5 km/h (0 Bft) W 270 0 min 0,6 UV-I 14,0 C 17,2 C 0,0 km/h (0 Bft)
05.09.2012 14:47 17,0 C 21,5 C 16,8 C 17,3 C 17,3 C 0,3 C 82 % 88 % 8 % 1019,2 hPa 0,0 l/m 0,3 km/h (0 Bft) N 360 0 min 0,7 UV-I 13,9 C 17,3 C 0,0 km/h (0 Bft)
05.09.2012 14:52 17,0 C 21,5 C 16,7 C 17,2 C 17,2 C 0,2 C 83 % 88 % 5 % 1019,2 hPa 0,0 l/m 0,2 km/h (0 Bft) W 270 0 min 0,5 UV-I 14,1 C 17,2 C 2,4 km/h (1 Bft)
05.09.2012 14:57 17,0 C 21,6 C 16,9 C 17,1 C 17,1 C 0,1 C 83 % 90 % 3 % 1019,2 hPa 0,0 l/m 0,3 km/h (0 Bft) SW 225 0 min 0,4 UV-I 14,1 C 17,1 C 0,0 km/h (0 Bft)
05.09.2012 15:02 17,0 C 21,6 C 16,8 C 17,0 C 17,0 C 0,0 C 83 % 91 % 0 % 1019,2 hPa 0,0 l/m 0,5 km/h (0 Bft) N 360 0 min 0,4 UV-I 14,1 C 17,0 C 0,0 km/h (0 Bft)
05.09.2012 15:07 17,0 C 21,6 C 16,8 C 17,0 C 17,0 C 0,0 C 83 % 92 % 0 % 1019,2 hPa 0,0 l/m 0,2 km/h (0 Bft) SW 225 0 min 0,2 UV-I 14,1 C 17,0 C 0,0 km/h (0 Bft)
05.09.2012 15:12 17,0 C 21,6 C 16,8 C 17,0 C 17,0 C 0,0 C 84 % 92 % 0 % 1019,2 hPa 0,7 l/m 0,0 km/h (0 Bft) O 90 0 min 0,2 UV-I 14,3 C 17,0 C 0,0 km/h (0 Bft)
05.09.2012 15:17 16,9 C 21,6 C 16,7 C 16,9 C 16,9 C 0,0 C 84 % 92 % 0 % 1019,2 hPa 0,0 l/m 0,0 km/h (0 Bft) W-NW 292 0 min 0,1 UV-I 14,2 C 16,9 C 0,0 km/h (0 Bft)
05.09.2012 15:22 16,9 C 21,6 C 16,7 C 16,9 C 16,9 C 0,0 C 84 % 92 % 0 % 1019,2 hPa 0,0 l/m 0,2 km/h (0 Bft) NO 45 0 min 0,0 UV-I 14,2 C 16,9 C 3,5 km/h (1 Bft)
05.09.2012 15:27 16,7 C 21,7 C 16,7 C 16,8 C 16,8 C 0,1 C 85 % 93 % 3 % 1019,2 hPa 0,0 l/m 0,5 km/h (0 Bft) N-NO 22 0 min 0,1 UV-I 14,2 C 16,8 C 0,0 km/h (0 Bft)
05.09.2012 15:32 16,7 C 21,7 C 16,6 C 16,7 C 16,6 C 0,0 C 85 % 93 % 0 % 1019,2 hPa 0,0 l/m 1,1 km/h (1 Bft) O-NO 67 0 min 0,0 UV-I 14,2 C 16,6 C 0,0 km/h (0 Bft)
05.09.2012 15:37 16,6 C 21,7 C 16,7 C 16,6 C 16,6 C 0,0 C 85 % 93 % 0 % 1019,2 hPa 0,0 l/m 0,6 km/h (0 Bft) O-NO 67 0 min 0,1 UV-I 14,1 C 16,6 C 0,0 km/h (0 Bft)
05.09.2012 15:42 16,4 C 21,7 C 16,6 C 16,7 C 16,7 C 0,3 C 85 % 93 % 8 % 1019,4 hPa 0,0 l/m 0,2 km/h (0 Bft) W-SW 247 0 min 0,3 UV-I 13,9 C 16,7 C 0,0 km/h (0 Bft)
05.09.2012 15:47 16,4 C 21,7 C 16,7 C 16,8 C 16,8 C 0,4 C 86 % 93 % 11 % 1019,4 hPa 0,0 l/m 0,2 km/h (0 Bft) N-NO 22 0 min 0,3 UV-I 14,1 C 16,8 C 2,1 km/h (1 Bft)
05.09.2012 15:52 16,4 C 21,7 C 16,6 C 16,8 C 16,8 C 0,4 C 86 % 94 % 11 % 1019,4 hPa 0,0 l/m 0,3 km/h (0 Bft) NW 315 0 min 0,2 UV-I 14,1 C 16,8 C 2,3 km/h (1 Bft)
05.09.2012 15:57 16,4 C 21,7 C 16,7 C 16,8 C 16,8 C 0,4 C 87 % 94 % 11 % 1019,4 hPa 0,0 l/m 0,2 km/h (0 Bft) N-NW 337 0 min 0,2 UV-I 14,2 C 16,8 C 0,0 km/h (0 Bft)
05.09.2012 16:02 16,5 C 21,7 C 16,6 C 16,9 C 16,9 C 0,4 C 87 % 94 % 11 % 1020,1 hPa 0,0 l/m 0,2 km/h (0 Bft) NW 315 0 min 0,1 UV-I 14,3 C 16,9 C 1,8 km/h (1 Bft)
05.09.2012 16:07 16,5 C 21,7 C 16,6 C 16,9 C 16,9 C 0,4 C 87 % 94 % 11 % 1020,1 hPa 0,0 l/m 0,0 km/h (0 Bft) N-NW 337 0 min 0,1 UV-I 14,3 C 16,9 C 0,0 km/h (0 Bft)
05.09.2012 16:12 16,4 C 21,7 C 16,5 C 16,8 C 16,8 C 0,4 C 87 % 94 % 11 % 1020,1 hPa 0,7 l/m 0,6 km/h (0 Bft) SW 225 0 min 0,0 UV-I 14,2 C 16,8 C 1,9 km/h (1 Bft)
05.09.2012 16:17 16,3 C 21,7 C 16,4 C 16,6 C 16,6 C 0,3 C 87 % 94 % 8 % 1020,1 hPa 0,0 l/m 1,1 km/h (1 Bft) W-NW 292 0 min 0,0 UV-I 14,1 C 16,6 C 0,0 km/h (0 Bft)
05.09.2012 16:22 16,1 C 21,7 C 16,3 C 16,4 C 16,4 C 0,3 C 87 % 94 % 8 % 1019,7 hPa 0,0 l/m 1,1 km/h (1 Bft) NW 315 0 min 0,0 UV-I 13,9 C 16,4 C 2,6 km/h (1 Bft)
05.09.2012 16:27 16,1 C 21,7 C 16,3 C 16,3 C 16,3 C 0,2 C 87 % 94 % 5 % 1019,7 hPa 0,0 l/m 0,8 km/h (0 Bft) N-NO 22 0 min 0,0 UV-I 13,9 C 16,3 C 0,0 km/h (0 Bft)
05.09.2012 16:32 16,0 C 21,7 C 16,3 C 16,3 C 16,3 C 0,3 C 87 % 94 % 8 % 1019,7 hPa 0,0 l/m 0,6 km/h (0 Bft) NO 45 0 min 0,0 UV-I 13,8 C 16,3 C 0,0 km/h (0 Bft)
05.09.2012 16:37 16,0 C 21,7 C 16,3 C 16,3 C 16,3 C 0,3 C 87 % 94 % 8 % 1019,7 hPa 0,0 l/m 0,5 km/h (0 Bft) W-NW 292 0 min 0,0 UV-I 13,8 C 16,3 C 0,0 km/h (0 Bft)
05.09.2012 16:42 16,0 C 21,7 C 16,2 C 16,4 C 16,4 C 0,4 C 88 % 94 % 11 % 1019,2 hPa 0,0 l/m 0,0 km/h (0 Bft) W 270 0 min 0,0 UV-I 14,0 C 16,4 C 2,3 km/h (1 Bft)
05.09.2012 16:47 16,0 C 21,7 C 16,2 C 16,4 C 16,4 C 0,4 C 88 % 94 % 11 % 1019,2 hPa 0,0 l/m 0,2 km/h (0 Bft) SW 225 0 min 0,0 UV-I 14,0 C 16,4 C 0,0 km/h (0 Bft)
05.09.2012 16:52 16,0 C 21,7 C 16,3 C 16,4 C 16,4 C 0,4 C 88 % 94 % 11 % 1019,2 hPa 0,0 l/m 0,2 km/h (0 Bft) N-NO 22 0 min 0,0 UV-I 14,0 C 16,4 C 0,0 km/h (0 Bft)
05.09.2012 16:57 16,0 C 21,7 C 16,3 C 16,4 C 16,4 C 0,4 C 88 % 94 % 11 % 1019,2 hPa 0,0 l/m 0,0 km/h (0 Bft) O 90 0 min 0,0 UV-I 14,0 C 16,4 C 0,0 km/h (0 Bft)
05.09.2012 17:02 16,1 C 21,7 C 16,2 C 16,4 C 16,4 C 0,3 C 88 % 94 % 8 % 1019,3 hPa 0,0 l/m 0,5 km/h (0 Bft) N-NW 337 0 min 0,0 UV-I 14,1 C 16,4 C 0,0 km/h (0 Bft)
05.09.2012 17:07 16,1 C 21,7 C 16,2 C 16,4 C 16,4 C 0,3 C 88 % 94 % 8 % 1019,3 hPa 0,0 l/m 0,5 km/h (0 Bft) NW 315 0 min 0,0 UV-I 14,1 C 16,4 C 0,0 km/h (0 Bft)
05.09.2012 17:12 16,1 C 21,7 C 16,3 C 16,4 C 16,4 C 0,3 C 88 % 95 % 8 % 1019,3 hPa 0,0 l/m 0,2 km/h (0 Bft) O 90 0 min 0,0 UV-I 14,1 C 16,4 C 1,9 km/h (1 Bft)
05.09.2012 17:17 16,1 C 21,7 C 16,3 C 16,3 C 16,3 C 0,2 C 88 % 95 % 5 % 1019,3 hPa 0,0 l/m 0,2 km/h (0 Bft) NW 315 0 min 0,0 UV-I 14,1 C 16,3 C 0,0 km/h (0 Bft)
05.09.2012 17:22 16,1 C 21,8 C 16,2 C 16,3 C 16,3 C 0,2 C 88 % 95 % 5 % 1019,1 hPa 0,0 l/m 0,0 km/h (0 Bft) S-SO 157 0 min 0,0 UV-I 14,1 C 16,3 C 0,0 km/h (0 Bft)
05.09.2012 17:27 16,1 C 21,8 C 16,3 C 16,4 C 16,4 C 0,3 C 88 % 95 % 8 % 1019,1 hPa 0,0 l/m 0,2 km/h (0 Bft) N 360 0 min 0,0 UV-I 14,1 C 16,4 C 0,0 km/h (0 Bft)
05.09.2012 17:32 16,0 C 21,8 C 16,3 C 16,4 C 16,4 C 0,4 C 88 % 95 % 11 % 1019,1 hPa 0,0 l/m 0,2 km/h (0 Bft) O-NO 67 0 min 0,0 UV-I 14,0 C 16,4 C 0,0 km/h (0 Bft)
05.09.2012 17:37 16,1 C 21,8 C 16,3 C 16,4 C 16,4 C 0,3 C 88 % 95 % 8 % 1019,1 hPa 0,0 l/m 0,0 km/h (0 Bft) W-NW 292 0 min 0,0 UV-I 14,1 C 16,4 C 0,0 km/h (0 Bft)
05.09.2012 17:42 16,0 C 21,8 C 16,3 C 16,5 C 16,5 C 0,5 C 88 % 95 % 13 % 1018,7 hPa 0,0 l/m 0,0 km/h (0 Bft) SO 135 0 min 0,0 UV-I 14,0 C 16,5 C 0,0 km/h (0 Bft)
05.09.2012 17:47 16,0 C 21,8 C 16,4 C 16,5 C 16,5 C 0,5 C 88 % 95 % 13 % 1018,7 hPa 0,0 l/m 0,0 km/h (0 Bft) NW 315 0 min 0,0 UV-I 14,0 C 16,5 C 0,0 km/h (0 Bft)
05.09.2012 17:52 16,1 C 21,8 C 16,3 C 16,5 C 16,5 C 0,4 C 88 % 95 % 11 % 1018,7 hPa 0,0 l/m 0,2 km/h (0 Bft) N 360 0 min 0,0 UV-I 14,1 C 16,5 C 0,0 km/h (0 Bft)
05.09.2012 17:57 16,0 C 21,8 C 16,3 C 16,5 C 16,5 C 0,5 C 88 % 95 % 13 % 1018,7 hPa 0,0 l/m 0,3 km/h (0 Bft) W-SW 247 0 min 0,0 UV-I 14,0 C 16,5 C 0,0 km/h (0 Bft)
05.09.2012 18:02 16,1 C 21,8 C 16,3 C 16,6 C 16,6 C 0,5 C 88 % 95 % 13 % 1018,6 hPa 0,0 l/m 0,2 km/h (0 Bft) W-SW 247 0 min 0,0 UV-I 14,1 C 16,6 C 0,0 km/h (0 Bft)
05.09.2012 18:07 16,1 C 21,8 C 16,3 C 16,6 C 16,6 C 0,5 C 88 % 95 % 13 % 1018,6 hPa 0,0 l/m 0,0 km/h (0 Bft) NW 315 0 min 0,0 UV-I 14,1 C 16,6 C 2,3 km/h (1 Bft)
05.09.2012 18:12 16,0 C 21,8 C 16,2 C 16,6 C 16,6 C 0,6 C 88 % 95 % 16 % 1018,6 hPa 0,0 l/m 0,3 km/h (0 Bft) N-NW 337 0 min 0,0 UV-I 14,0 C 16,6 C 0,0 km/h (0 Bft)
05.09.2012 18:17 16,0 C 21,8 C 16,3 C 16,6 C 16,6 C 0,6 C 88 % 95 % 16 % 1018,6 hPa 0,0 l/m 0,3 km/h (0 Bft) W 270 0 min 0,0 UV-I 14,0 C 16,6 C 0,0 km/h (0 Bft)
05.09.2012 18:22 15,9 C 21,8 C 16,3 C 16,6 C 16,6 C 0,7 C 88 % 95 % 18 % 1018,2 hPa 0,0 l/m 0,2 km/h (0 Bft) O-SO 112 0 min 0,0 UV-I 13,9 C 16,6 C 0,0 km/h (0 Bft)
05.09.2012 18:27 15,9 C 21,8 C 16,3 C 16,5 C 16,5 C 0,6 C 88 % 95 % 16 % 1018,2 hPa 0,0 l/m 0,2 km/h (0 Bft) W-SW 247 0 min 0,0 UV-I 13,9 C 16,5 C 0,0 km/h (0 Bft)
05.09.2012 18:32 15,8 C 21,8 C 16,2 C 16,4 C 16,4 C 0,6 C 88 % 95 % 16 % 1018,2 hPa 0,0 l/m 0,2 km/h (0 Bft) W 270 0 min 0,0 UV-I 13,8 C 16,4 C 0,0 km/h (0 Bft)
05.09.2012 18:37 15,9 C 21,8 C 16,1 C 16,4 C 16,4 C 0,5 C 88 % 95 % 13 % 1018,2 hPa 0,0 l/m 0,5 km/h (0 Bft) O 90 0 min 0,0 UV-I 13,9 C 16,4 C 1,9 km/h (1 Bft)
05.09.2012 18:42 15,7 C 21,8 C 16,0 C 16,3 C 16,3 C 0,6 C 88 % 95 % 16 % 1018,4 hPa 0,0 l/m 1,1 km/h (1 Bft) SW 225 0 min 0,0 UV-I 13,7 C 16,3 C 0,0 km/h (0 Bft)
05.09.2012 18:47 15,6 C 21,8 C 16,1 C 16,2 C 16,2 C 0,6 C 88 % 95 % 16 % 1018,4 hPa 0,0 l/m 0,8 km/h (0 Bft) S-SO 157 0 min 0,0 UV-I 13,6 C 16,2 C 0,0 km/h (0 Bft)
05.09.2012 18:52 15,5 C 21,8 C 16,0 C 16,1 C 16,1 C 0,6 C 88 % 95 % 16 % 1018,4 hPa 0,0 l/m 0,2 km/h (0 Bft) W-SW 247 0 min 0,0 UV-I 13,5 C 16,1 C 0,0 km/h (0 Bft)
05.09.2012 18:57 15,5 C 21,8 C 15,9 C 16,0 C 16,0 C 0,5 C 88 % 95 % 13 % 1018,4 hPa 0,0 l/m 0,2 km/h (0 Bft) N-NW 337 0 min 0,0 UV-I 13,5 C 16,0 C 0,0 km/h (0 Bft)
05.09.2012 19:02 15,5 C 21,8 C 15,9 C 15,9 C 15,9 C 0,4 C 88 % 95 % 11 % 1018,4 hPa 0,0 l/m 0,0 km/h (0 Bft) W-SW 247 0 min 0,0 UV-I 13,5 C 15,9 C 0,0 km/h (0 Bft)
05.09.2012 19:07 15,5 C 21,8 C 16,0 C 15,9 C 15,9 C 0,4 C 88 % 95 % 11 % 1018,4 hPa 0,0 l/m 0,0 km/h (0 Bft) W 270 0 min 0,0 UV-I 13,5 C 15,9 C 0,0 km/h (0 Bft)
05.09.2012 19:12 15,5 C 21,8 C 15,9 C 15,9 C 15,9 C 0,4 C 88 % 95 % 11 % 1018,4 hPa 0,0 l/m 0,2 km/h (0 Bft) SW 225 0 min 0,0 UV-I 13,5 C 15,9 C 1,6 km/h (1 Bft)
05.09.2012 19:17 15,5 C 21,8 C 15,9 C 15,9 C 15,9 C 0,4 C 88 % 95 % 11 % 1018,4 hPa 0,0 l/m 0,3 km/h (0 Bft) W-SW 247 0 min 0,0 UV-I 13,5 C 15,9 C 0,0 km/h (0 Bft)
05.09.2012 19:22 15,5 C 21,8 C 15,9 C 15,8 C 15,8 C 0,3 C 88 % 95 % 8 % 1018,6 hPa 0,0 l/m 0,3 km/h (0 Bft) W-SW 247 0 min 0,0 UV-I 13,5 C 15,8 C 0,0 km/h (0 Bft)
05.09.2012 19:27 15,4 C 21,8 C 15,9 C 15,7 C 15,7 C 0,3 C 88 % 95 % 8 % 1018,6 hPa 0,0 l/m 0,2 km/h (0 Bft) W-SW 247 0 min 0,0 UV-I 13,4 C 15,7 C 0,0 km/h (0 Bft)
05.09.2012 19:32 15,3 C 21,8 C 15,9 C 15,7 C 15,7 C 0,4 C 88 % 95 % 11 % 1018,6 hPa 0,0 l/m 0,0 km/h (0 Bft) SW 225 5 min 0,0 UV-I 13,3 C 15,7 C 0,0 km/h (0 Bft)
05.09.2012 19:37 15,3 C 21,8 C 15,9 C 15,7 C 15,7 C 0,4 C 88 % 95 % 0 % 1018,6 hPa 0,0 l/m 0,0 km/h (0 Bft) S 180 0 min 0,0 UV-I 13,3 C 15,7 C 0,0 km/h (0 Bft)
05.09.2012 19:42 15,3 C 21,8 C 15,8 C 15,7 C 15,7 C 0,4 C 88 % 95 % 0 % 1018,6 hPa 0,0 l/m 0,0 km/h (0 Bft) SW 225 0 min 0,0 UV-I 13,3 C 15,7 C 0,0 km/h (0 Bft)
05.09.2012 19:47 15,2 C 21,8 C 15,9 C 15,7 C 15,7 C 0,5 C 88 % 95 % 0 % 1018,6 hPa 0,0 l/m 0,0 km/h (0 Bft) S-SW 202 0 min 0,0 UV-I 13,2 C 15,7 C 0,0 km/h (0 Bft)
05.09.2012 19:52 15,2 C 21,8 C 15,9 C 15,7 C 15,7 C 0,5 C 89 % 95 % 0 % 1018,6 hPa 0,0 l/m 0,2 km/h (0 Bft) W-SW 247 0 min 0,0 UV-I 13,4 C 15,7 C 2,7 km/h (1 Bft)
05.09.2012 19:57 15,3 C 21,8 C 15,9 C 15,6 C 15,6 C 0,3 C 89 % 95 % 0 % 1018,6 hPa 0,0 l/m 0,3 km/h (0 Bft) S 180 0 min 0,0 UV-I 13,5 C 15,6 C 3,1 km/h (1 Bft)
05.09.2012 20:02 15,1 C 21,8 C 15,7 C 15,5 C 15,5 C 0,4 C 88 % 95 % 0 % 1018,8 hPa 0,0 l/m 1,3 km/h (1 Bft) W-SW 247 0 min 0,0 UV-I 13,1 C 15,5 C 2,4 km/h (1 Bft)
05.09.2012 20:07 15,1 C 21,8 C 15,6 C 15,5 C 15,5 C 0,4 C 88 % 95 % 0 % 1018,8 hPa 0,0 l/m 1,6 km/h (1 Bft) W-SW 247 0 min 0,0 UV-I 13,1 C 15,5 C 0,0 km/h (0 Bft)
05.09.2012 20:12 15,1 C 21,8 C 15,7 C 15,5 C 15,5 C 0,4 C 88 % 95 % 0 % 1018,8 hPa 0,0 l/m 1,1 km/h (1 Bft) W-SW 247 0 min 0,0 UV-I 13,1 C 15,5 C 1,8 km/h (1 Bft)
05.09.2012 20:17 15,1 C 21,8 C 15,6 C 15,5 C 15,5 C 0,4 C 88 % 95 % 0 % 1018,8 hPa 0,0 l/m 1,3 km/h (1 Bft) S 180 0 min 0,0 UV-I 13,1 C 15,5 C 2,7 km/h (1 Bft)
05.09.2012 20:22 15,1 C 21,8 C 15,7 C 15,4 C 15,4 C 0,3 C 88 % 95 % 0 % 1018,8 hPa 0,0 l/m 1,1 km/h (1 Bft) W-SW 247 0 min 0,0 UV-I 13,1 C 15,4 C 0,0 km/h (0 Bft)
05.09.2012 20:27 15,1 C 21,8 C 15,7 C 15,4 C 15,4 C 0,3 C 88 % 95 % 0 % 1018,8 hPa 0,0 l/m 0,3 km/h (0 Bft) SW 225 0 min 0,0 UV-I 13,1 C 15,4 C 0,0 km/h (0 Bft)
05.09.2012 20:32 15,1 C 21,8 C 15,6 C 15,4 C 15,4 C 0,3 C 89 % 95 % 0 % 1018,8 hPa 0,0 l/m 0,0 km/h (0 Bft) S 180 0 min 0,0 UV-I 13,3 C 15,4 C 0,0 km/h (0 Bft)
05.09.2012 20:37 15,1 C 21,8 C 15,6 C 15,3 C 15,3 C 0,2 C 89 % 95 % 0 % 1018,8 hPa 0,0 l/m 0,2 km/h (0 Bft) SW 225 0 min 0,0 UV-I 13,3 C 15,3 C 0,0 km/h (0 Bft)
05.09.2012 20:42 15,1 C 21,8 C 15,6 C 15,3 C 15,3 C 0,2 C 89 % 95 % 0 % 1019,2 hPa 0,0 l/m 0,8 km/h (0 Bft) SW 225 0 min 0,0 UV-I 13,3 C 15,3 C 1,8 km/h (1 Bft)
05.09.2012 20:47 15,1 C 21,8 C 15,6 C 15,3 C 15,3 C 0,2 C 89 % 95 % 0 % 1019,2 hPa 0,0 l/m 1,0 km/h (0 Bft) SW 225 0 min 0,0 UV-I 13,3 C 15,3 C 0,0 km/h (0 Bft)
05.09.2012 20:52 14,9 C 21,8 C 15,5 C 15,3 C 15,3 C 0,4 C 89 % 95 % 0 % 1019,2 hPa 0,0 l/m 1,8 km/h (1 Bft) W-SW 247 0 min 0,0 UV-I 13,1 C 15,3 C 4,3 km/h (1 Bft)
05.09.2012 20:57 14,9 C 21,8 C 15,5 C 15,3 C 15,3 C 0,4 C 89 % 95 % 0 % 1019,2 hPa 0,0 l/m 1,9 km/h (1 Bft) SW 225 0 min 0,0 UV-I 13,1 C 15,3 C 2,1 km/h (1 Bft)
05.09.2012 21:02 14,9 C 21,8 C 15,5 C 15,3 C 15,3 C 0,4 C 89 % 95 % 0 % 1019,3 hPa 0,0 l/m 2,1 km/h (1 Bft) O-SO 112 0 min 0,0 UV-I 13,1 C 15,3 C 0,0 km/h (0 Bft)
05.09.2012 21:07 14,8 C 21,9 C 15,5 C 15,3 C 15,3 C 0,5 C 89 % 95 % 0 % 1019,3 hPa 0,0 l/m 1,4 km/h (1 Bft) O-NO 67 0 min 0,0 UV-I 13,0 C 15,3 C 0,0 km/h (0 Bft)
05.09.2012 21:12 14,8 C 22,0 C 15,5 C 15,3 C 15,3 C 0,5 C 89 % 95 % 0 % 1019,3 hPa 0,0 l/m 0,0 km/h (0 Bft) O-NO 67 0 min 0,0 UV-I 13,0 C 15,3 C 0,0 km/h (0 Bft)
05.09.2012 21:17 14,8 C 22,0 C 15,5 C 15,2 C 15,2 C 0,4 C 89 % 95 % 0 % 1019,3 hPa 0,0 l/m 0,0 km/h (0 Bft) O-NO 67 0 min 0,0 UV-I 13,0 C 15,2 C 0,0 km/h (0 Bft)
05.09.2012 21:22 14,8 C 22,0 C 15,5 C 15,2 C 15,2 C 0,4 C 89 % 95 % 0 % 1019,2 hPa 0,0 l/m 0,2 km/h (0 Bft) O-NO 67 0 min 0,0 UV-I 13,0 C 15,2 C 0,0 km/h (0 Bft)
05.09.2012 21:27 14,8 C 21,9 C 15,5 C 15,2 C 15,2 C 0,4 C 89 % 95 % 0 % 1019,2 hPa 0,0 l/m 0,2 km/h (0 Bft) O-NO 67 0 min 0,0 UV-I 13,0 C 15,2 C 0,0 km/h (0 Bft)
05.09.2012 21:32 14,7 C 21,9 C 15,3 C 15,1 C 15,1 C 0,4 C 89 % 95 % 0 % 1019,2 hPa 0,0 l/m 0,0 km/h (0 Bft) NO 45 0 min 0,0 UV-I 12,9 C 15,1 C 0,0 km/h (0 Bft)
05.09.2012 21:37 14,7 C 21,9 C 15,2 C 15,1 C 15,1 C 0,4 C 89 % 95 % 0 % 1019,2 hPa 0,0 l/m 0,0 km/h (0 Bft) S-SO 157 0 min 0,0 UV-I 12,9 C 15,1 C 0,0 km/h (0 Bft)
05.09.2012 21:42 14,7 C 21,9 C 15,3 C 15,0 C 15,0 C 0,3 C 89 % 95 % 0 % 1019,1 hPa 0,0 l/m 0,0 km/h (0 Bft) W-SW 247 0 min 0,0 UV-I 12,9 C 15,0 C 0,0 km/h (0 Bft)
05.09.2012 21:47 14,6 C 21,9 C 15,3 C 15,0 C 15,0 C 0,4 C 89 % 95 % 0 % 1019,1 hPa 0,0 l/m 0,0 km/h (0 Bft) W 270 0 min 0,0 UV-I 12,8 C 15,0 C 0,0 km/h (0 Bft)
05.09.2012 21:52 14,6 C 21,9 C 15,2 C 15,0 C 15,0 C 0,4 C 89 % 95 % 0 % 1019,1 hPa 0,0 l/m 0,0 km/h (0 Bft) S 180 0 min 0,0 UV-I 12,8 C 15,0 C 0,0 km/h (0 Bft)
05.09.2012 21:57 14,7 C 21,9 C 15,2 C 14,9 C 14,9 C 0,2 C 90 % 95 % 0 % 1019,1 hPa 0,0 l/m 0,0 km/h (0 Bft) W-SW 247 0 min 0,0 UV-I 13,1 C 14,9 C 0,0 km/h (0 Bft)
05.09.2012 22:02 14,6 C 21,9 C 15,2 C 14,9 C 14,9 C 0,3 C 90 % 95 % 0 % 1019,7 hPa 0,0 l/m 0,0 km/h (0 Bft) SW 225 0 min 0,0 UV-I 13,0 C 14,9 C 0,0 km/h (0 Bft)
05.09.2012 22:07 14,6 C 21,9 C 15,2 C 14,9 C 14,9 C 0,3 C 90 % 95 % 0 % 1019,7 hPa 0,0 l/m 0,0 km/h (0 Bft) S-SW 202 0 min 0,0 UV-I 13,0 C 14,9 C 0,0 km/h (0 Bft)
05.09.2012 22:12 14,6 C 21,9 C 15,2 C 14,9 C 14,9 C 0,3 C 90 % 95 % 0 % 1019,7 hPa 0,0 l/m 0,0 km/h (0 Bft) W-SW 247 0 min 0,0 UV-I 13,0 C 14,9 C 0,0 km/h (0 Bft)
05.09.2012 22:17 14,6 C 21,9 C 15,2 C 14,9 C 14,9 C 0,3 C 90 % 95 % 0 % 1019,7 hPa 0,0 l/m 0,0 km/h (0 Bft) W-SW 247 0 min 0,0 UV-I 13,0 C 14,9 C 0,0 km/h (0 Bft)
05.09.2012 22:22 14,6 C 21,9 C 15,2 C 14,9 C 14,9 C 0,3 C 90 % 95 % 0 % 1019,2 hPa 0,0 l/m 0,0 km/h (0 Bft) W-NW 292 0 min 0,0 UV-I 13,0 C 14,9 C 0,0 km/h (0 Bft)
05.09.2012 22:27 14,5 C 21,9 C 15,3 C 14,9 C 14,9 C 0,4 C 89 % 95 % 0 % 1019,2 hPa 0,0 l/m 0,0 km/h (0 Bft) SW 225 0 min 0,0 UV-I 12,7 C 14,9 C 0,0 km/h (0 Bft)
05.09.2012 22:32 14,5 C 21,9 C 15,2 C 14,9 C 14,9 C 0,4 C 89 % 95 % 0 % 1019,2 hPa 0,0 l/m 0,2 km/h (0 Bft) W-SW 247 0 min 0,0 UV-I 12,7 C 14,9 C 1,9 km/h (1 Bft)
05.09.2012 22:37 14,5 C 21,9 C 15,3 C 14,8 C 14,8 C 0,3 C 89 % 95 % 0 % 1019,2 hPa 0,0 l/m 0,3 km/h (0 Bft) SW 225 0 min 0,0 UV-I 12,7 C 14,8 C 0,0 km/h (0 Bft)
05.09.2012 22:42 14,5 C 21,9 C 15,1 C 14,7 C 14,7 C 0,2 C 90 % 95 % 0 % 1019,9 hPa 0,0 l/m 1,1 km/h (1 Bft) S-SW 202 0 min 0,0 UV-I 12,9 C 14,7 C 1,6 km/h (1 Bft)
05.09.2012 22:47 14,5 C 21,9 C 15,1 C 14,7 C 14,7 C 0,2 C 89 % 95 % 0 % 1019,9 hPa 0,0 l/m 1,4 km/h (1 Bft) W-SW 247 0 min 0,0 UV-I 12,7 C 14,7 C 2,4 km/h (1 Bft)
05.09.2012 22:52 14,4 C 21,9 C 15,1 C 14,7 C 14,7 C 0,3 C 89 % 95 % 0 % 1019,9 hPa 0,0 l/m 1,8 km/h (1 Bft) SW 225 0 min 0,0 UV-I 12,6 C 14,7 C 1,9 km/h (1 Bft)
05.09.2012 22:57 14,3 C 21,8 C 15,1 C 14,7 C 14,7 C 0,4 C 89 % 95 % 0 % 1019,9 hPa 0,0 l/m 1,9 km/h (1 Bft) W-SW 247 0 min 0,0 UV-I 12,5 C 14,7 C 3,9 km/h (1 Bft)
05.09.2012 23:02 14,3 C 21,8 C 15,1 C 14,8 C 14,8 C 0,5 C 90 % 95 % 0 % 1019,6 hPa 0,0 l/m 1,6 km/h (1 Bft) W-SW 247 0 min 0,0 UV-I 12,7 C 14,8 C 0,0 km/h (0 Bft)
05.09.2012 23:07 14,3 C 21,8 C 15,1 C 14,8 C 14,8 C 0,5 C 90 % 96 % 0 % 1019,6 hPa 0,0 l/m 1,3 km/h (1 Bft) S-SW 202 0 min 0,0 UV-I 12,7 C 14,8 C 2,7 km/h (1 Bft)
05.09.2012 23:12 14,2 C 21,8 C 15,0 C 14,7 C 14,7 C 0,5 C 89 % 95 % 0 % 1019,6 hPa 0,0 l/m 1,4 km/h (1 Bft) S-SW 202 0 min 0,0 UV-I 12,4 C 14,7 C 3,2 km/h (1 Bft)
05.09.2012 23:17 14,3 C 21,8 C 15,1 C 14,7 C 14,7 C 0,4 C 89 % 96 % 0 % 1019,6 hPa 0,0 l/m 1,9 km/h (1 Bft) S 180 0 min 0,0 UV-I 12,5 C 14,7 C 2,4 km/h (1 Bft)
05.09.2012 23:22 14,3 C 21,8 C 15,0 C 14,6 C 14,6 C 0,3 C 89 % 95 % 0 % 1019,6 hPa 0,0 l/m 2,9 km/h (1 Bft) W 270 0 min 0,0 UV-I 12,5 C 14,6 C 4,2 km/h (1 Bft)
05.09.2012 23:27 14,3 C 21,8 C 15,0 C 14,6 C 14,6 C 0,3 C 89 % 95 % 0 % 1019,6 hPa 0,0 l/m 2,7 km/h (1 Bft) S-SW 202 0 min 0,0 UV-I 12,5 C 14,6 C 0,0 km/h (0 Bft)
05.09.2012 23:32 14,3 C 21,8 C 14,9 C 14,6 C 14,6 C 0,3 C 89 % 95 % 0 % 1019,6 hPa 0,0 l/m 1,4 km/h (1 Bft) SW 225 0 min 0,0 UV-I 12,5 C 14,6 C 5,0 km/h (1 Bft)
05.09.2012 23:37 14,3 C 21,8 C 14,9 C 14,6 C 14,6 C 0,3 C 89 % 95 % 0 % 1019,6 hPa 0,0 l/m 1,0 km/h (0 Bft) S 180 0 min 0,0 UV-I 12,5 C 14,6 C 0,0 km/h (0 Bft)
05.09.2012 23:42 14,1 C 21,8 C 14,9 C 14,6 C 14,6 C 0,5 C 89 % 95 % 0 % 1019,8 hPa 0,0 l/m 0,8 km/h (0 Bft) O-NO 67 0 min 0,0 UV-I 12,3 C 14,6 C 0,0 km/h (0 Bft)
05.09.2012 23:47 14,1 C 21,9 C 14,8 C 14,6 C 14,6 C 0,5 C 89 % 96 % 0 % 1019,8 hPa 0,0 l/m 0,5 km/h (0 Bft) S 180 0 min 0,0 UV-I 12,3 C 14,6 C 0,0 km/h (0 Bft)
05.09.2012 23:52 14,1 C 21,9 C 14,8 C 14,5 C 14,5 C 0,4 C 89 % 96 % 0 % 1019,8 hPa 0,0 l/m 0,0 km/h (0 Bft) S 180 0 min 0,0 UV-I 12,3 C 14,5 C 0,0 km/h (0 Bft)
05.09.2012 23:57 14,1 C 21,8 C 14,9 C 14,4 C 14,4 C 0,3 C 89 % 96 % 0 % 1019,8 hPa 0,0 l/m 0,2 km/h (0 Bft) W-SW 247 0 min 0,0 UV-I 12,3 C 14,4 C 1,9 km/h (1 Bft)
_ Min-Zeit 06:17 10:22 06:22 06:17 06:17 00:02 12:52 13:37 00:02 06:42 - 00:02 - - - 00:02 06:17 06:17 00:02
Minimum _ 8,7 C 20,6 C 10,4 C 9,0 C 9,0 C 0,0 C 75 % 82 % 0 % 1017,9 hPa - 0,0 km/h (0 Bft) - - - 0,0 UV-I 7,2 C 9,0 C 0,0 km/h (0 Bft)
_ Max-Zeit 12:47 00:02 12:47 12:42 12:42 08:07 07:57 23:07 07:37 16:02 15:12 12:57 - - 06:42 12:37 12:47 12:42 12:12
Maximum _ 18,7 C 22,1 C 18,3 C 21,6 C 21,6 C 7,0 C 93 % 96 % 100 % 1020,1 hPa 0,7 l/m 2,9 km/h
S (1 Bft)
- - 5 min 2,3 UV-I 14,4 C 21,6 C 6,3 km/h
SW (2 Bft)
Durchschnitt _ 13,8 C 21,5 C 14,6 C 14,8 C 14,8 C 1,0 C 87 % 91 % 22 % 1019,0 hPa #1,4 l/m 0,5 km/h (0 Bft) W-SW - #1:55 h 0,9 UV-I 11,7 C 14,8 C 0,7 km/h (0 Bft)
2012 www.wetterstation-wechselburg.de